sensor_id;sensor_type;location;lat;lon;timestamp;temperature;humidity
3770;DHT22;1900;48.890;9.190;2022-09-16T00:00:42;21.10;63.50
3770;DHT22;1900;48.890;9.190;2022-09-16T00:03:09;21.20;63.60
3770;DHT22;1900;48.890;9.190;2022-09-16T00:05:42;21.20;63.60
3770;DHT22;1900;48.890;9.190;2022-09-16T00:08:09;21.20;63.60
3770;DHT22;1900;48.890;9.190;2022-09-16T00:10:35;21.10;63.50
3770;DHT22;1900;48.890;9.190;2022-09-16T00:13:00;21.10;63.50
3770;DHT22;1900;48.890;9.190;2022-09-16T00:15:26;21.10;63.40
3770;DHT22;1900;48.890;9.190;2022-09-16T00:17:52;21.10;63.30
3770;DHT22;1900;48.890;9.190;2022-09-16T00:20:17;21.10;63.40
3770;DHT22;1900;48.890;9.190;2022-09-16T00:22:43;21.10;63.40
3770;DHT22;1900;48.890;9.190;2022-09-16T00:25:09;21.10;63.40
3770;DHT22;1900;48.890;9.190;2022-09-16T00:27:34;21.10;63.50
3770;DHT22;1900;48.890;9.190;2022-09-16T00:30:00;21.10;63.50
3770;DHT22;1900;48.890;9.190;2022-09-16T00:32:26;21.10;63.60
3770;DHT22;1900;48.890;9.190;2022-09-16T00:34:51;21.10;63.60
3770;DHT22;1900;48.890;9.190;2022-09-16T00:37:17;21.10;63.60
3770;DHT22;1900;48.890;9.190;2022-09-16T00:39:43;21.10;63.60
3770;DHT22;1900;48.890;9.190;2022-09-16T00:42:10;21.10;63.60
3770;DHT22;1900;48.890;9.190;2022-09-16T00:44:55;21.10;63.60
3770;DHT22;1900;48.890;9.190;2022-09-16T00:47:44;21.10;63.70
3770;DHT22;1900;48.890;9.190;2022-09-16T00:50:40;21.10;63.60
3770;DHT22;1900;48.890;9.190;2022-09-16T00:53:15;21.10;63.20
3770;DHT22;1900;48.890;9.190;2022-09-16T00:55:42;21.00;63.40
3770;DHT22;1900;48.890;9.190;2022-09-16T00:58:19;21.00;63.50
3770;DHT22;1900;48.890;9.190;2022-09-16T01:00:48;21.00;63.60
3770;DHT22;1900;48.890;9.190;2022-09-16T01:03:15;21.00;63.60
3770;DHT22;1900;48.890;9.190;2022-09-16T01:05:41;21.00;63.60
3770;DHT22;1900;48.890;9.190;2022-09-16T01:08:08;21.00;63.40
3770;DHT22;1900;48.890;9.190;2022-09-16T01:10:34;21.00;63.30
3770;DHT22;1900;48.890;9.190;2022-09-16T01:13:05;21.00;63.40
3770;DHT22;1900;48.890;9.190;2022-09-16T01:15:53;21.00;63.50
3770;DHT22;1900;48.890;9.190;2022-09-16T01:24:02;20.90;63.20
3770;DHT22;1900;48.890;9.190;2022-09-16T01:29:48;20.90;63.40
3770;DHT22;1900;48.890;9.190;2022-09-16T01:32:27;20.90;63.40
3770;DHT22;1900;48.890;9.190;2022-09-16T01:38:11;20.80;63.30
3770;DHT22;1900;48.890;9.190;2022-09-16T01:45:55;20.70;63.10
3770;DHT22;1900;48.890;9.190;2022-09-16T01:48:48;20.70;63.10
3770;DHT22;1900;48.890;9.190;2022-09-16T01:54:16;20.60;62.80
3770;DHT22;1900;48.890;9.190;2022-09-16T01:59:50;20.50;62.80
3770;DHT22;1900;48.890;9.190;2022-09-16T02:02:23;20.50;62.90
3770;DHT22;1900;48.890;9.190;2022-09-16T02:04:56;20.50;62.80
3770;DHT22;1900;48.890;9.190;2022-09-16T02:07:27;20.40;62.60
3770;DHT22;1900;48.890;9.190;2022-09-16T02:09:57;20.40;62.60
3770;DHT22;1900;48.890;9.190;2022-09-16T02:12:32;20.40;62.70
3770;DHT22;1900;48.890;9.190;2022-09-16T02:15:02;20.30;62.70
3770;DHT22;1900;48.890;9.190;2022-09-16T02:17:32;20.30;62.70
3770;DHT22;1900;48.890;9.190;2022-09-16T02:22:41;20.30;62.70
3770;DHT22;1900;48.890;9.190;2022-09-16T02:25:09;20.30;62.90
3770;DHT22;1900;48.890;9.190;2022-09-16T02:27:38;20.30;62.90
3770;DHT22;1900;48.890;9.190;2022-09-16T02:30:09;20.30;62.80
3770;DHT22;1900;48.890;9.190;2022-09-16T02:32:46;20.20;62.70
3770;DHT22;1900;48.890;9.190;2022-09-16T02:35:16;20.20;62.80
3770;DHT22;1900;48.890;9.190;2022-09-16T02:37:49;20.20;62.80
3770;DHT22;1900;48.890;9.190;2022-09-16T02:40:21;20.20;62.80
3770;DHT22;1900;48.890;9.190;2022-09-16T02:42:48;20.20;62.80
3770;DHT22;1900;48.890;9.190;2022-09-16T02:45:14;20.20;62.80
3770;DHT22;1900;48.890;9.190;2022-09-16T02:48:09;20.20;62.80
3770;DHT22;1900;48.890;9.190;2022-09-16T02:50:49;20.20;62.80
3770;DHT22;1900;48.890;9.190;2022-09-16T02:53:47;20.20;62.70
3770;DHT22;1900;48.890;9.190;2022-09-16T02:56:28;20.10;62.70
3770;DHT22;1900;48.890;9.190;2022-09-16T02:58:55;20.10;62.70
3770;DHT22;1900;48.890;9.190;2022-09-16T03:01:21;20.10;62.60
3770;DHT22;1900;48.890;9.190;2022-09-16T03:03:49;20.10;62.70
3770;DHT22;1900;48.890;9.190;2022-09-16T03:06:21;20.10;62.60
3770;DHT22;1900;48.890;9.190;2022-09-16T03:08:48;20.10;62.60
3770;DHT22;1900;48.890;9.190;2022-09-16T03:14:17;20.10;62.50
3770;DHT22;1900;48.890;9.190;2022-09-16T03:24:56;20.00;62.50
3770;DHT22;1900;48.890;9.190;2022-09-16T03:30:15;20.00;62.60
3770;DHT22;1900;48.890;9.190;2022-09-16T03:32:52;20.00;62.60
3770;DHT22;1900;48.890;9.190;2022-09-16T03:35:26;20.00;62.50
3770;DHT22;1900;48.890;9.190;2022-09-16T03:37:56;20.00;62.50
3770;DHT22;1900;48.890;9.190;2022-09-16T03:40:23;20.00;62.50
3770;DHT22;1900;48.890;9.190;2022-09-16T03:42:49;20.00;62.50
3770;DHT22;1900;48.890;9.190;2022-09-16T03:45:21;20.00;62.50
3770;DHT22;1900;48.890;9.190;2022-09-16T03:47:48;20.00;62.50
3770;DHT22;1900;48.890;9.190;2022-09-16T03:50:16;20.00;62.50
3770;DHT22;1900;48.890;9.190;2022-09-16T03:52:42;20.00;62.50
3770;DHT22;1900;48.890;9.190;2022-09-16T03:55:09;20.00;62.60
3770;DHT22;1900;48.890;9.190;2022-09-16T03:57:38;20.00;62.60
3770;DHT22;1900;48.890;9.190;2022-09-16T04:00:05;20.00;62.60
3770;DHT22;1900;48.890;9.190;2022-09-16T04:02:37;20.00;62.60
3770;DHT22;1900;48.890;9.190;2022-09-16T04:05:03;20.00;62.60
3770;DHT22;1900;48.890;9.190;2022-09-16T04:07:31;20.00;62.60
3770;DHT22;1900;48.890;9.190;2022-09-16T04:09:57;20.00;62.70
3770;DHT22;1900;48.890;9.190;2022-09-16T04:12:23;20.00;62.70
3770;DHT22;1900;48.890;9.190;2022-09-16T04:14:49;20.00;62.40
3770;DHT22;1900;48.890;9.190;2022-09-16T04:17:15;20.00;62.40
3770;DHT22;1900;48.890;9.190;2022-09-16T04:19:40;20.00;62.50
3770;DHT22;1900;48.890;9.190;2022-09-16T04:22:06;20.00;62.60
3770;DHT22;1900;48.890;9.190;2022-09-16T04:24:32;20.00;62.50
3770;DHT22;1900;48.890;9.190;2022-09-16T04:26:57;20.00;62.60
3770;DHT22;1900;48.890;9.190;2022-09-16T04:29:23;20.00;62.50
3770;DHT22;1900;48.890;9.190;2022-09-16T04:31:49;20.00;62.40
3770;DHT22;1900;48.890;9.190;2022-09-16T04:34:14;20.00;62.50
3770;DHT22;1900;48.890;9.190;2022-09-16T04:36:40;20.00;62.40
3770;DHT22;1900;48.890;9.190;2022-09-16T04:39:06;20.00;62.50
3770;DHT22;1900;48.890;9.190;2022-09-16T04:41:32;20.00;62.60
3770;DHT22;1900;48.890;9.190;2022-09-16T04:43:59;20.00;62.70
3770;DHT22;1900;48.890;9.190;2022-09-16T04:46:26;20.00;62.70
3770;DHT22;1900;48.890;9.190;2022-09-16T04:48:54;20.00;62.70
3770;DHT22;1900;48.890;9.190;2022-09-16T04:51:20;20.10;62.80
3770;DHT22;1900;48.890;9.190;2022-09-16T04:53:48;20.10;62.80
3770;DHT22;1900;48.890;9.190;2022-09-16T04:56:25;20.10;62.80
3770;DHT22;1900;48.890;9.190;2022-09-16T04:58:58;20.00;63.40
3770;DHT22;1900;48.890;9.190;2022-09-16T05:01:27;20.10;62.70
3770;DHT22;1900;48.890;9.190;2022-09-16T05:03:56;20.00;62.60
3770;DHT22;1900;48.890;9.190;2022-09-16T05:06:30;20.10;62.70
3770;DHT22;1900;48.890;9.190;2022-09-16T05:08:57;20.00;62.70
3770;DHT22;1900;48.890;9.190;2022-09-16T05:11:25;20.00;62.70
3770;DHT22;1900;48.890;9.190;2022-09-16T05:13:52;20.10;62.90
3770;DHT22;1900;48.890;9.190;2022-09-16T05:16:21;20.10;62.90
3770;DHT22;1900;48.890;9.190;2022-09-16T05:18:50;20.10;63.10
3770;DHT22;1900;48.890;9.190;2022-09-16T05:21:21;20.10;63.00
3770;DHT22;1900;48.890;9.190;2022-09-16T05:23:47;20.10;63.10
3770;DHT22;1900;48.890;9.190;2022-09-16T05:26:16;20.10;63.70
3770;DHT22;1900;48.890;9.190;2022-09-16T05:28:42;20.10;62.90
3770;DHT22;1900;48.890;9.190;2022-09-16T05:31:12;20.10;62.80
3770;DHT22;1900;48.890;9.190;2022-09-16T05:33:39;20.20;62.90
3770;DHT22;1900;48.890;9.190;2022-09-16T05:36:11;20.10;62.80
3770;DHT22;1900;48.890;9.190;2022-09-16T05:38:37;20.10;62.80
3770;DHT22;1900;48.890;9.190;2022-09-16T05:41:04;20.10;62.90
3770;DHT22;1900;48.890;9.190;2022-09-16T05:43:30;20.10;63.60
3770;DHT22;1900;48.890;9.190;2022-09-16T05:45:56;20.10;62.70
3770;DHT22;1900;48.890;9.190;2022-09-16T05:48:22;20.10;62.80
3770;DHT22;1900;48.890;9.190;2022-09-16T05:50:56;20.10;62.90
3770;DHT22;1900;48.890;9.190;2022-09-16T05:53:24;20.10;62.90
3770;DHT22;1900;48.890;9.190;2022-09-16T05:56:07;20.10;62.80
3770;DHT22;1900;48.890;9.190;2022-09-16T05:58:34;20.10;62.70
3770;DHT22;1900;48.890;9.190;2022-09-16T06:01:03;20.00;63.30
3770;DHT22;1900;48.890;9.190;2022-09-16T06:03:31;20.00;62.70
3770;DHT22;1900;48.890;9.190;2022-09-16T06:08:30;20.10;63.10
3770;DHT22;1900;48.890;9.190;2022-09-16T06:11:00;20.10;63.10
3770;DHT22;1900;48.890;9.190;2022-09-16T06:13:26;20.10;63.20
3770;DHT22;1900;48.890;9.190;2022-09-16T06:15:52;20.10;63.20
3770;DHT22;1900;48.890;9.190;2022-09-16T06:18:22;20.10;63.20
3770;DHT22;1900;48.890;9.190;2022-09-16T06:20:49;20.10;63.20
3770;DHT22;1900;48.890;9.190;2022-09-16T06:23:15;20.10;63.10
3770;DHT22;1900;48.890;9.190;2022-09-16T06:25:41;20.10;62.90
3770;DHT22;1900;48.890;9.190;2022-09-16T06:28:07;20.10;62.90
3770;DHT22;1900;48.890;9.190;2022-09-16T06:30:34;20.10;62.70
3770;DHT22;1900;48.890;9.190;2022-09-16T06:33:00;20.10;62.70
3770;DHT22;1900;48.890;9.190;2022-09-16T06:35:25;20.10;62.80
3770;DHT22;1900;48.890;9.190;2022-09-16T06:37:52;20.10;63.00
3770;DHT22;1900;48.890;9.190;2022-09-16T06:40:18;20.10;62.90
3770;DHT22;1900;48.890;9.190;2022-09-16T06:42:44;20.10;62.80
3770;DHT22;1900;48.890;9.190;2022-09-16T06:45:10;20.10;62.90
3770;DHT22;1900;48.890;9.190;2022-09-16T06:47:35;20.00;62.80
3770;DHT22;1900;48.890;9.190;2022-09-16T06:50:02;20.00;62.80
3770;DHT22;1900;48.890;9.190;2022-09-16T06:52:29;20.00;63.10
3770;DHT22;1900;48.890;9.190;2022-09-16T06:54:55;20.00;63.30
3770;DHT22;1900;48.890;9.190;2022-09-16T06:57:21;20.10;63.20
3770;DHT22;1900;48.890;9.190;2022-09-16T06:59:50;20.10;63.00
3770;DHT22;1900;48.890;9.190;2022-09-16T07:02:18;20.00;63.10
3770;DHT22;1900;48.890;9.190;2022-09-16T07:04:44;20.10;63.30
3770;DHT22;1900;48.890;9.190;2022-09-16T07:07:11;20.00;63.20
3770;DHT22;1900;48.890;9.190;2022-09-16T07:09:38;20.10;63.20
3770;DHT22;1900;48.890;9.190;2022-09-16T07:12:04;20.00;63.00
3770;DHT22;1900;48.890;9.190;2022-09-16T07:14:30;20.00;62.90
3770;DHT22;1900;48.890;9.190;2022-09-16T07:16:59;20.00;62.90
3770;DHT22;1900;48.890;9.190;2022-09-16T07:19:25;20.00;63.00
3770;DHT22;1900;48.890;9.190;2022-09-16T07:21:51;20.00;63.00
3770;DHT22;1900;48.890;9.190;2022-09-16T07:24:17;19.90;62.90
3770;DHT22;1900;48.890;9.190;2022-09-16T07:26:43;19.90;63.10
3770;DHT22;1900;48.890;9.190;2022-09-16T07:29:12;20.00;63.30
3770;DHT22;1900;48.890;9.190;2022-09-16T07:31:38;19.90;63.30
3770;DHT22;1900;48.890;9.190;2022-09-16T07:34:06;19.90;63.10
3770;DHT22;1900;48.890;9.190;2022-09-16T07:36:35;19.90;62.80
3770;DHT22;1900;48.890;9.190;2022-09-16T07:39:02;19.80;62.70
3770;DHT22;1900;48.890;9.190;2022-09-16T07:41:31;19.80;62.50
3770;DHT22;1900;48.890;9.190;2022-09-16T07:43:58;19.80;62.70
3770;DHT22;1900;48.890;9.190;2022-09-16T07:46:29;19.70;62.80
3770;DHT22;1900;48.890;9.190;2022-09-16T07:48:56;19.70;62.80
3770;DHT22;1900;48.890;9.190;2022-09-16T07:51:24;19.70;62.80
3770;DHT22;1900;48.890;9.190;2022-09-16T07:53:55;19.70;62.80
3770;DHT22;1900;48.890;9.190;2022-09-16T07:56:23;19.60;62.50
3770;DHT22;1900;48.890;9.190;2022-09-16T07:58:51;19.60;62.50
3770;DHT22;1900;48.890;9.190;2022-09-16T08:01:17;19.60;62.80
3770;DHT22;1900;48.890;9.190;2022-09-16T08:03:44;19.50;62.90
3770;DHT22;1900;48.890;9.190;2022-09-16T08:06:12;19.60;63.10
3770;DHT22;1900;48.890;9.190;2022-09-16T08:08:39;19.60;63.30
3770;DHT22;1900;48.890;9.190;2022-09-16T08:11:05;19.60;63.40
3770;DHT22;1900;48.890;9.190;2022-09-16T08:13:33;19.60;63.50
3770;DHT22;1900;48.890;9.190;2022-09-16T08:16:02;19.70;63.60
3770;DHT22;1900;48.890;9.190;2022-09-16T08:18:28;19.70;63.70
3770;DHT22;1900;48.890;9.190;2022-09-16T08:20:54;19.70;63.70
3770;DHT22;1900;48.890;9.190;2022-09-16T08:23:20;19.80;63.90
3770;DHT22;1900;48.890;9.190;2022-09-16T08:25:45;19.80;63.70
3770;DHT22;1900;48.890;9.190;2022-09-16T08:28:13;19.80;63.70
3770;DHT22;1900;48.890;9.190;2022-09-16T08:30:39;19.80;63.70
3770;DHT22;1900;48.890;9.190;2022-09-16T08:33:05;19.80;63.70
3770;DHT22;1900;48.890;9.190;2022-09-16T08:35:31;19.80;63.90
3770;DHT22;1900;48.890;9.190;2022-09-16T08:37:58;19.90;64.00
3770;DHT22;1900;48.890;9.190;2022-09-16T08:40:24;19.90;63.90
3770;DHT22;1900;48.890;9.190;2022-09-16T08:43:14;19.90;63.90
3770;DHT22;1900;48.890;9.190;2022-09-16T08:45:58;19.90;64.00
3770;DHT22;1900;48.890;9.190;2022-09-16T08:48:42;19.90;63.90
3770;DHT22;1900;48.890;9.190;2022-09-16T08:51:16;20.00;63.90
3770;DHT22;1900;48.890;9.190;2022-09-16T08:56:15;20.00;64.10
3770;DHT22;1900;48.890;9.190;2022-09-16T08:58:47;20.00;64.20
3770;DHT22;1900;48.890;9.190;2022-09-16T09:03:58;20.10;64.50
3770;DHT22;1900;48.890;9.190;2022-09-16T09:12:36;20.20;64.40
3770;DHT22;1900;48.890;9.190;2022-09-16T09:15:16;20.20;64.30
3770;DHT22;1900;48.890;9.190;2022-09-16T09:20:30;20.20;64.40
3770;DHT22;1900;48.890;9.190;2022-09-16T09:25:46;20.30;64.70
3770;DHT22;1900;48.890;9.190;2022-09-16T09:33:59;20.40;64.70
3770;DHT22;1900;48.890;9.190;2022-09-16T09:36:36;20.40;64.70
3770;DHT22;1900;48.890;9.190;2022-09-16T09:41:53;20.50;64.70
3770;DHT22;1900;48.890;9.190;2022-09-16T09:55:18;20.50;64.40
3770;DHT22;1900;48.890;9.190;2022-09-16T10:00:25;20.50;64.50
3770;DHT22;1900;48.890;9.190;2022-09-16T10:02:51;20.50;64.40
3770;DHT22;1900;48.890;9.190;2022-09-16T10:05:25;20.50;64.40
3770;DHT22;1900;48.890;9.190;2022-09-16T10:07:54;20.50;64.40
3770;DHT22;1900;48.890;9.190;2022-09-16T10:10:24;20.50;64.30
3770;DHT22;1900;48.890;9.190;2022-09-16T10:12:51;20.50;64.20
3770;DHT22;1900;48.890;9.190;2022-09-16T10:15:27;20.50;64.20
3770;DHT22;1900;48.890;9.190;2022-09-16T10:17:54;20.50;64.20
3770;DHT22;1900;48.890;9.190;2022-09-16T10:20:27;20.40;64.10
3770;DHT22;1900;48.890;9.190;2022-09-16T10:23:01;20.50;64.30
3770;DHT22;1900;48.890;9.190;2022-09-16T10:25:28;20.50;64.20
3770;DHT22;1900;48.890;9.190;2022-09-16T10:28:00;20.40;64.10
3770;DHT22;1900;48.890;9.190;2022-09-16T10:30:28;20.40;64.10
3770;DHT22;1900;48.890;9.190;2022-09-16T10:33:00;20.40;64.10
3770;DHT22;1900;48.890;9.190;2022-09-16T10:35:29;20.40;64.20
3770;DHT22;1900;48.890;9.190;2022-09-16T10:38:16;20.40;64.10
3770;DHT22;1900;48.890;9.190;2022-09-16T10:41:16;20.40;64.20
3770;DHT22;1900;48.890;9.190;2022-09-16T10:43:50;20.40;64.20
3770;DHT22;1900;48.890;9.190;2022-09-16T10:46:16;20.40;64.10
3770;DHT22;1900;48.890;9.190;2022-09-16T10:48:43;20.40;64.10
3770;DHT22;1900;48.890;9.190;2022-09-16T10:51:27;20.40;64.20
3770;DHT22;1900;48.890;9.190;2022-09-16T10:53:56;20.40;64.20
3770;DHT22;1900;48.890;9.190;2022-09-16T10:56:27;20.40;64.10
3770;DHT22;1900;48.890;9.190;2022-09-16T10:59:05;20.40;64.00
3770;DHT22;1900;48.890;9.190;2022-09-16T11:07:36;20.40;64.10
3770;DHT22;1900;48.890;9.190;2022-09-16T11:12:46;20.30;64.10
3770;DHT22;1900;48.890;9.190;2022-09-16T11:18:20;20.30;64.90
3770;DHT22;1900;48.890;9.190;2022-09-16T11:35:21;20.40;64.40
3770;DHT22;1900;48.890;9.190;2022-09-16T11:38:20;20.40;64.50
3770;DHT22;1900;48.890;9.190;2022-09-16T11:43:54;20.40;64.50
3770;DHT22;1900;48.890;9.190;2022-09-16T11:57:34;20.50;64.70
3770;DHT22;1900;48.890;9.190;2022-09-16T12:00:12;20.60;64.70
3770;DHT22;1900;48.890;9.190;2022-09-16T12:07:47;20.70;64.90
3770;DHT22;1900;48.890;9.190;2022-09-16T12:10:24;20.70;64.90
3770;DHT22;1900;48.890;9.190;2022-09-16T12:12:56;20.80;65.00
3770;DHT22;1900;48.890;9.190;2022-09-16T12:15:28;20.80;65.00
3770;DHT22;1900;48.890;9.190;2022-09-16T12:18:00;20.90;64.90
3770;DHT22;1900;48.890;9.190;2022-09-16T12:20:49;21.00;64.90
3770;DHT22;1900;48.890;9.190;2022-09-16T12:31:12;21.10;64.90
3770;DHT22;1900;48.890;9.190;2022-09-16T12:33:53;21.20;65.40
3770;DHT22;1900;48.890;9.190;2022-09-16T12:36:29;21.40;66.00
3770;DHT22;1900;48.890;9.190;2022-09-16T12:38:57;21.50;66.50
3770;DHT22;1900;48.890;9.190;2022-09-16T12:41:37;21.70;66.70
3770;DHT22;1900;48.890;9.190;2022-09-16T12:44:22;21.90;66.90
3770;DHT22;1900;48.890;9.190;2022-09-16T12:58:27;22.80;67.40
3770;DHT22;1900;48.890;9.190;2022-09-16T13:01:10;23.00;67.70
3770;DHT22;1900;48.890;9.190;2022-09-16T13:03:42;23.20;68.30
3770;DHT22;1900;48.890;9.190;2022-09-16T13:06:30;23.40;68.60
3770;DHT22;1900;48.890;9.190;2022-09-16T13:11:40;23.80;68.60
3770;DHT22;1900;48.890;9.190;2022-09-16T13:14:22;24.10;69.00
3770;DHT22;1900;48.890;9.190;2022-09-16T13:16:55;24.30;68.90
3770;DHT22;1900;48.890;9.190;2022-09-16T13:19:38;24.50;68.90
3770;DHT22;1900;48.890;9.190;2022-09-16T13:25:42;24.80;68.10
3770;DHT22;1900;48.890;9.190;2022-09-16T13:27:40;25.00;68.10
3770;DHT22;1900;48.890;9.190;2022-09-16T13:30:30;25.10;68.50
3770;DHT22;1900;48.890;9.190;2022-09-16T13:32:59;25.30;68.50
3770;DHT22;1900;48.890;9.190;2022-09-16T13:35:43;25.40;68.50
3770;DHT22;1900;48.890;9.190;2022-09-16T13:40:59;25.60;67.40
3770;DHT22;1900;48.890;9.190;2022-09-16T13:43:31;25.70;67.00
3770;DHT22;1900;48.890;9.190;2022-09-16T13:46:03;25.80;66.90
3770;DHT22;1900;48.890;9.190;2022-09-16T13:48:35;25.90;66.80
3770;DHT22;1900;48.890;9.190;2022-09-16T13:51:08;25.90;66.40
3770;DHT22;1900;48.890;9.190;2022-09-16T13:53:46;25.90;66.10
3770;DHT22;1900;48.890;9.190;2022-09-16T14:01:38;26.10;65.70
3770;DHT22;1900;48.890;9.190;2022-09-16T14:10:30;26.00;65.00
3770;DHT22;1900;48.890;9.190;2022-09-16T14:13:20;26.00;64.60
3770;DHT22;1900;48.890;9.190;2022-09-16T14:15:55;26.00;64.20
3770;DHT22;1900;48.890;9.190;2022-09-16T14:18:25;25.90;64.70
3770;DHT22;1900;48.890;9.190;2022-09-16T14:21:20;26.00;65.30
3770;DHT22;1900;48.890;9.190;2022-09-16T14:23:46;26.00;64.90
3770;DHT22;1900;48.890;9.190;2022-09-16T14:26:18;26.00;65.30
3770;DHT22;1900;48.890;9.190;2022-09-16T14:28:44;26.10;65.00
3770;DHT22;1900;48.890;9.190;2022-09-16T14:31:19;26.10;64.90
3770;DHT22;1900;48.890;9.190;2022-09-16T14:33:52;26.10;64.30
3770;DHT22;1900;48.890;9.190;2022-09-16T14:36:22;26.10;64.50
3770;DHT22;1900;48.890;9.190;2022-09-16T14:38:54;26.10;64.80
3770;DHT22;1900;48.890;9.190;2022-09-16T14:41:38;26.20;64.80
3770;DHT22;1900;48.890;9.190;2022-09-16T14:46:49;26.30;64.70
3770;DHT22;1900;48.890;9.190;2022-09-16T14:49:16;26.40;64.70
3770;DHT22;1900;48.890;9.190;2022-09-16T14:51:49;26.40;64.80
3770;DHT22;1900;48.890;9.190;2022-09-16T14:54:21;26.40;64.50
3770;DHT22;1900;48.890;9.190;2022-09-16T14:57:13;26.50;64.20
3770;DHT22;1900;48.890;9.190;2022-09-16T14:59:39;26.40;63.40
3770;DHT22;1900;48.890;9.190;2022-09-16T15:04:40;26.30;63.30
3770;DHT22;1900;48.890;9.190;2022-09-16T15:07:23;26.30;63.30
3770;DHT22;1900;48.890;9.190;2022-09-16T15:10:01;26.20;62.80
3770;DHT22;1900;48.890;9.190;2022-09-16T15:12:45;26.10;62.80
3770;DHT22;1900;48.890;9.190;2022-09-16T15:15:18;26.00;62.50
3770;DHT22;1900;48.890;9.190;2022-09-16T15:18:02;25.90;62.50
3770;DHT22;1900;48.890;9.190;2022-09-16T15:20:33;25.80;62.40
3770;DHT22;1900;48.890;9.190;2022-09-16T15:23:00;25.70;62.40
3770;DHT22;1900;48.890;9.190;2022-09-16T15:25:31;25.60;62.30
3770;DHT22;1900;48.890;9.190;2022-09-16T15:30:31;25.40;62.10
3770;DHT22;1900;48.890;9.190;2022-09-16T15:32:56;25.40;62.00
3770;DHT22;1900;48.890;9.190;2022-09-16T15:35:27;25.30;61.70
3770;DHT22;1900;48.890;9.190;2022-09-16T15:37:54;25.10;61.40
3770;DHT22;1900;48.890;9.190;2022-09-16T15:40:29;25.00;61.40
3770;DHT22;1900;48.890;9.190;2022-09-16T15:45:41;24.80;61.10
3770;DHT22;1900;48.890;9.190;2022-09-16T15:48:17;24.70;61.30
3770;DHT22;1900;48.890;9.190;2022-09-16T15:50:48;24.60;61.10
3770;DHT22;1900;48.890;9.190;2022-09-16T15:53:34;24.50;61.00
3770;DHT22;1900;48.890;9.190;2022-09-16T15:58:36;24.30;60.80
3770;DHT22;1900;48.890;9.190;2022-09-16T16:03:51;24.20;60.80
3770;DHT22;1900;48.890;9.190;2022-09-16T16:06:18;24.10;60.70
3770;DHT22;1900;48.890;9.190;2022-09-16T16:08:49;24.00;60.60
3770;DHT22;1900;48.890;9.190;2022-09-16T16:11:20;23.90;60.20
3770;DHT22;1900;48.890;9.190;2022-09-16T16:13:46;23.80;60.10
3770;DHT22;1900;48.890;9.190;2022-09-16T16:16:14;23.80;60.20
3770;DHT22;1900;48.890;9.190;2022-09-16T16:18:42;23.60;60.10
3770;DHT22;1900;48.890;9.190;2022-09-16T16:21:11;23.60;60.10
3770;DHT22;1900;48.890;9.190;2022-09-16T16:23:38;23.50;59.90
3770;DHT22;1900;48.890;9.190;2022-09-16T16:26:08;23.40;59.60
3770;DHT22;1900;48.890;9.190;2022-09-16T16:28:34;23.40;59.60
3770;DHT22;1900;48.890;9.190;2022-09-16T16:31:11;23.30;59.40
3770;DHT22;1900;48.890;9.190;2022-09-16T16:33:39;23.20;59.20
3770;DHT22;1900;48.890;9.190;2022-09-16T16:36:05;23.10;59.20
3770;DHT22;1900;48.890;9.190;2022-09-16T16:38:31;23.00;59.30
3770;DHT22;1900;48.890;9.190;2022-09-16T16:40:56;23.00;59.30
3770;DHT22;1900;48.890;9.190;2022-09-16T16:43:23;22.90;59.40
3770;DHT22;1900;48.890;9.190;2022-09-16T16:45:55;22.90;59.40
3770;DHT22;1900;48.890;9.190;2022-09-16T16:48:22;22.80;59.30
3770;DHT22;1900;48.890;9.190;2022-09-16T16:50:59;22.70;59.30
3770;DHT22;1900;48.890;9.190;2022-09-16T16:53:26;22.70;59.10
3770;DHT22;1900;48.890;9.190;2022-09-16T16:55:52;22.60;59.00
3770;DHT22;1900;48.890;9.190;2022-09-16T16:58:18;22.50;58.90
3770;DHT22;1900;48.890;9.190;2022-09-16T17:00:44;22.50;58.90
3770;DHT22;1900;48.890;9.190;2022-09-16T17:03:10;22.40;58.80
3770;DHT22;1900;48.890;9.190;2022-09-16T17:05:35;22.30;58.80
3770;DHT22;1900;48.890;9.190;2022-09-16T17:08:01;22.30;58.80
3770;DHT22;1900;48.890;9.190;2022-09-16T17:10:27;22.20;59.30
3770;DHT22;1900;48.890;9.190;2022-09-16T17:12:53;22.10;58.80
3770;DHT22;1900;48.890;9.190;2022-09-16T17:15:19;22.10;58.80
3770;DHT22;1900;48.890;9.190;2022-09-16T17:17:44;22.10;58.90
3770;DHT22;1900;48.890;9.190;2022-09-16T17:20:10;22.00;58.90
3770;DHT22;1900;48.890;9.190;2022-09-16T17:22:36;22.00;58.90
3770;DHT22;1900;48.890;9.190;2022-09-16T17:25:01;21.90;58.60
3770;DHT22;1900;48.890;9.190;2022-09-16T17:27:27;21.80;58.60
3770;DHT22;1900;48.890;9.190;2022-09-16T17:29:54;21.70;58.60
3770;DHT22;1900;48.890;9.190;2022-09-16T17:32:20;21.70;58.60
3770;DHT22;1900;48.890;9.190;2022-09-16T17:34:45;21.60;58.60
3770;DHT22;1900;48.890;9.190;2022-09-16T17:37:11;21.60;58.70
3770;DHT22;1900;48.890;9.190;2022-09-16T17:39:38;21.50;58.60
3770;DHT22;1900;48.890;9.190;2022-09-16T17:42:04;21.40;58.70
3770;DHT22;1900;48.890;9.190;2022-09-16T17:44:30;21.40;58.70
3770;DHT22;1900;48.890;9.190;2022-09-16T17:46:56;21.30;58.60
3770;DHT22;1900;48.890;9.190;2022-09-16T17:49:22;21.30;58.60
3770;DHT22;1900;48.890;9.190;2022-09-16T17:51:52;21.20;58.50
3770;DHT22;1900;48.890;9.190;2022-09-16T17:54:18;21.10;58.50
3770;DHT22;1900;48.890;9.190;2022-09-16T17:56:44;21.10;58.50
3770;DHT22;1900;48.890;9.190;2022-09-16T17:59:11;21.00;58.30
3770;DHT22;1900;48.890;9.190;2022-09-16T18:01:37;20.90;58.10
3770;DHT22;1900;48.890;9.190;2022-09-16T18:04:03;20.80;58.20
3770;DHT22;1900;48.890;9.190;2022-09-16T18:06:32;20.80;58.20
3770;DHT22;1900;48.890;9.190;2022-09-16T18:09:03;20.70;58.30
3770;DHT22;1900;48.890;9.190;2022-09-16T18:11:29;20.70;58.40
3770;DHT22;1900;48.890;9.190;2022-09-16T18:13:58;20.60;58.40
3770;DHT22;1900;48.890;9.190;2022-09-16T18:16:24;20.60;58.50
3770;DHT22;1900;48.890;9.190;2022-09-16T18:18:53;20.50;58.50
3770;DHT22;1900;48.890;9.190;2022-09-16T18:21:19;20.50;58.50
3770;DHT22;1900;48.890;9.190;2022-09-16T18:23:46;20.40;58.40
3770;DHT22;1900;48.890;9.190;2022-09-16T18:26:15;20.40;58.40
3770;DHT22;1900;48.890;9.190;2022-09-16T18:28:43;20.30;58.30
3770;DHT22;1900;48.890;9.190;2022-09-16T18:31:11;20.30;58.50
3770;DHT22;1900;48.890;9.190;2022-09-16T18:33:37;20.30;58.50
3770;DHT22;1900;48.890;9.190;2022-09-16T18:36:05;20.20;58.50
3770;DHT22;1900;48.890;9.190;2022-09-16T18:38:32;20.20;58.50
3770;DHT22;1900;48.890;9.190;2022-09-16T18:43:38;20.20;58.60
3770;DHT22;1900;48.890;9.190;2022-09-16T18:46:14;20.20;58.60
3770;DHT22;1900;48.890;9.190;2022-09-16T18:48:42;20.20;58.70
3770;DHT22;1900;48.890;9.190;2022-09-16T18:54:00;20.10;58.80
3770;DHT22;1900;48.890;9.190;2022-09-16T18:56:29;20.10;58.90
3770;DHT22;1900;48.890;9.190;2022-09-16T18:59:05;20.10;58.80
3770;DHT22;1900;48.890;9.190;2022-09-16T19:01:36;20.10;58.80
3770;DHT22;1900;48.890;9.190;2022-09-16T19:04:09;20.10;58.80
3770;DHT22;1900;48.890;9.190;2022-09-16T19:06:37;20.10;58.90
3770;DHT22;1900;48.890;9.190;2022-09-16T19:09:05;20.10;59.00
3770;DHT22;1900;48.890;9.190;2022-09-16T19:11:32;20.10;58.90
3770;DHT22;1900;48.890;9.190;2022-09-16T19:13:58;20.10;58.70
3770;DHT22;1900;48.890;9.190;2022-09-16T19:16:24;20.00;58.50
3770;DHT22;1900;48.890;9.190;2022-09-16T19:18:52;20.00;58.40
3770;DHT22;1900;48.890;9.190;2022-09-16T19:21:19;19.90;58.10
3770;DHT22;1900;48.890;9.190;2022-09-16T19:23:47;19.90;58.00
3770;DHT22;1900;48.890;9.190;2022-09-16T19:26:16;19.80;58.00
3770;DHT22;1900;48.890;9.190;2022-09-16T19:28:42;19.80;58.00